Time;durP1;ratioP1;P1;durP2;ratioP2;P2;SDS_P1;SDS_P2;PMS_P1;PMS_P2;Temp;Humidity;BMP_temperature;BMP_pressure;BME280_temperature;BME280_humidity;BME280_pressure;Samples;Min_cycle;Max_cycle;Signal;HPM_P1;HPM_P2
2022/08/07 00:00:26;;;;;;;246.35;163.30;;;;;;;;;;5042146;28;20751;-73
2022/08/07 00:02:54;;;;;;;242.88;166.00;;;;;;;;;;5046107;28;20771;-73
2022/08/07 00:05:21;;;;;;;252.93;162.93;;;;;;;;;;5045351;28;20361;-73
2022/08/07 00:07:46;;;;;;;273.67;176.10;;;;;;;;;;5036690;28;21087;-73
2022/08/07 00:10:12;;;;;;;255.73;168.65;;;;;;;;;;5037581;28;20265;-73
2022/08/07 00:12:38;;;;;;;214.10;149.18;;;;;;;;;;5043102;28;20256;-72
2022/08/07 00:15:04;;;;;;;224.27;151.75;;;;;;;;;;5040311;28;20699;-72
2022/08/07 00:17:30;;;;;;;293.35;177.75;;;;;;;;;;5043069;28;20673;-72
2022/08/07 00:19:56;;;;;;;268.85;173.93;;;;;;;;;;5042263;28;20234;-73
2022/08/07 00:22:22;;;;;;;241.10;154.68;;;;;;;;;;5042103;28;20231;-72
2022/08/07 00:24:48;;;;;;;251.68;163.85;;;;;;;;;;5042275;28;20234;-72
2022/08/07 00:27:14;;;;;;;240.90;160.55;;;;;;;;;;5041330;28;20227;-72
2022/08/07 00:29:40;;;;;;;227.80;153.07;;;;;;;;;;5047304;28;20294;-73
2022/08/07 00:32:06;;;;;;;217.18;147.65;;;;;;;;;;5050168;28;20250;-72
2022/08/07 00:34:32;;;;;;;194.68;139.80;;;;;;;;;;5051315;28;20258;-73
2022/08/07 00:36:58;;;;;;;242.70;160.00;;;;;;;;;;5042062;28;20176;-72
2022/08/07 00:39:24;;;;;;;182.20;130.40;;;;;;;;;;5045266;28;20231;-72
2022/08/07 00:41:51;;;;;;;277.83;167.82;;;;;;;;;;5022195;28;20321;-72
2022/08/07 00:44:17;;;;;;;182.50;131.45;;;;;;;;;;5046801;28;20245;-72
2022/08/07 00:46:43;;;;;;;302.88;179.73;;;;;;;;;;5044000;28;20223;-72
2022/08/07 00:49:09;;;;;;;195.35;140.25;;;;;;;;;;5044574;28;20176;-72
2022/08/07 00:51:35;;;;;;;161.43;124.40;;;;;;;;;;5025890;28;20183;-72
2022/08/07 00:54:01;;;;;;;243.10;159.30;;;;;;;;;;5026045;28;20227;-72
2022/08/07 00:56:30;;;;;;;198.32;140.07;;;;;;;;;;5037024;28;20231;-73
2022/08/07 00:58:56;;;;;;;205.23;140.52;;;;;;;;;;5037927;28;20437;-72
2022/08/07 01:01:23;;;;;;;180.77;129.85;;;;;;;;;;5021130;28;20238;-72
2022/08/07 01:03:50;;;;;;;194.32;140.02;;;;;;;;;;5044965;28;20265;-72
2022/08/07 01:06:16;;;;;;;192.55;138.88;;;;;;;;;;5023637;28;20845;-73
2022/08/07 01:08:42;;;;;;;187.20;135.35;;;;;;;;;;5047337;28;20224;-72
2022/08/07 01:11:08;;;;;;;163.70;125.10;;;;;;;;;;5042873;28;20223;-73
2022/08/07 01:13:35;;;;;;;214.52;141.82;;;;;;;;;;5046438;28;20227;-72
2022/08/07 01:16:02;;;;;;;319.55;185.70;;;;;;;;;;5045887;28;20184;-73
2022/08/07 01:18:28;;;;;;;197.60;138.15;;;;;;;;;;5051495;28;20195;-72
2022/08/07 01:21:14;;;;;;;274.95;169.95;;;;;;;;;;5047755;28;20238;-72
2022/08/07 01:23:41;;;;;;;219.52;144.25;;;;;;;;;;5043073;28;20321;-72
2022/08/07 01:26:08;;;;;;;254.57;161.40;;;;;;;;;;5037106;28;20227;-72
2022/08/07 01:28:34;;;;;;;196.40;136.13;;;;;;;;;;5029987;28;20219;-73
2022/08/07 01:31:00;;;;;;;252.38;156.65;;;;;;;;;;5042144;28;20632;-73
2022/08/07 01:33:26;;;;;;;287.05;172.32;;;;;;;;;;5046843;28;20216;-72
2022/08/07 01:35:52;;;;;;;268.88;170.05;;;;;;;;;;5043483;28;20680;-72
2022/08/07 01:38:19;;;;;;;198.60;136.98;;;;;;;;;;5047348;28;20649;-72
2022/08/07 01:40:45;;;;;;;202.60;136.35;;;;;;;;;;5043552;28;20231;-72
2022/08/07 01:43:11;;;;;;;228.27;149.38;;;;;;;;;;5046837;28;20179;-73
2022/08/07 01:45:38;;;;;;;270.20;163.07;;;;;;;;;;5042295;28;20325;-74
2022/08/07 01:48:04;;;;;;;223.60;139.27;;;;;;;;;;5019099;28;20223;-73
2022/08/07 01:50:30;;;;;;;191.73;131.45;;;;;;;;;;5041773;28;20231;-72
2022/08/07 01:53:00;;;;;;;327.42;193.77;;;;;;;;;;5040074;28;20227;-72
2022/08/07 01:55:31;;;;;;;227.05;142.40;;;;;;;;;;5045087;28;20230;-72
2022/08/07 01:57:58;;;;;;;292.17;173.07;;;;;;;;;;5044697;28;20283;-72
2022/08/07 02:00:26;;;;;;;242.55;152.40;;;;;;;;;;5040562;28;20231;-72
2022/08/07 02:02:54;;;;;;;236.25;149.63;;;;;;;;;;5047411;28;20227;-72
2022/08/07 02:05:25;;;;;;;231.35;146.60;;;;;;;;;;5045045;28;20228;-72
2022/08/07 02:07:53;;;;;;;277.35;169.40;;;;;;;;;;5038900;28;20219;-72
2022/08/07 02:10:22;;;;;;;274.42;166.20;;;;;;;;;;5039381;28;20211;-72
2022/08/07 02:12:49;;;;;;;231.35;152.32;;;;;;;;;;5047467;28;20180;-72
2022/08/07 02:15:15;;;;;;;286.63;165.15;;;;;;;;;;5042066;28;20311;-73
2022/08/07 02:17:42;;;;;;;295.23;157.13;;;;;;;;;;5046776;28;20596;-73
2022/08/07 02:20:08;;;;;;;349.87;179.37;;;;;;;;;;5027910;28;20299;-73
2022/08/07 02:22:36;;;;;;;342.40;175.13;;;;;;;;;;5048041;28;20227;-73
2022/08/07 02:25:02;;;;;;;377.10;197.40;;;;;;;;;;5035162;28;20188;-71
2022/08/07 02:27:28;;;;;;;363.23;188.53;;;;;;;;;;5042009;28;20192;-72
2022/08/07 02:29:57;;;;;;;381.27;200.10;;;;;;;;;;5045289;28;20231;-72
2022/08/07 02:32:23;;;;;;;340.80;175.33;;;;;;;;;;5046930;28;20242;-72
2022/08/07 02:34:50;;;;;;;316.97;172.80;;;;;;;;;;5048581;28;20326;-73
2022/08/07 02:37:17;;;;;;;364.37;189.97;;;;;;;;;;5045810;28;21023;-72
2022/08/07 02:39:44;;;;;;;333.37;172.20;;;;;;;;;;5042461;28;20308;-71
2022/08/07 02:42:10;;;;;;;322.73;170.77;;;;;;;;;;5025747;28;20234;-72
2022/08/07 02:44:37;;;;;;;310.63;168.57;;;;;;;;;;5041135;28;20245;-72
2022/08/07 02:47:04;;;;;;;299.38;164.40;;;;;;;;;;5047693;28;20652;-72
2022/08/07 02:49:29;;;;;;;324.47;175.30;;;;;;;;;;5037831;28;20241;-72
2022/08/07 02:51:57;;;;;;;315.80;168.30;;;;;;;;;;5047000;28;20559;-73
2022/08/07 02:54:25;;;;;;;327.97;173.80;;;;;;;;;;5040388;28;20234;-72
2022/08/07 02:56:52;;;;;;;336.13;179.00;;;;;;;;;;5043975;28;20219;-73
2022/08/07 02:59:19;;;;;;;279.83;154.37;;;;;;;;;;5027112;28;20660;-72
2022/08/07 03:01:45;;;;;;;294.87;161.67;;;;;;;;;;5042667;28;20223;-72
2022/08/07 03:04:12;;;;;;;352.20;187.43;;;;;;;;;;5040692;28;20244;-73
2022/08/07 03:06:40;;;;;;;296.73;162.97;;;;;;;;;;5042204;28;20183;-72
2022/08/07 03:09:06;;;;;;;345.47;190.80;;;;;;;;;;5040193;28;20336;-73
2022/08/07 03:11:32;;;;;;;289.83;159.53;;;;;;;;;;5026201;28;20942;-72
2022/08/07 03:13:59;;;;;;;352.07;188.57;;;;;;;;;;5043058;28;20219;-72
2022/08/07 03:16:25;;;;;;;307.87;166.63;;;;;;;;;;5041722;28;20219;-73
2022/08/07 03:18:51;;;;;;;322.33;169.97;;;;;;;;;;5042747;28;20184;-72
2022/08/07 03:21:17;;;;;;;353.53;186.97;;;;;;;;;;5042130;28;20223;-72
2022/08/07 03:23:45;;;;;;;284.50;151.90;;;;;;;;;;5044822;28;20227;-73
2022/08/07 03:26:13;;;;;;;299.23;166.83;;;;;;;;;;5037947;28;20660;-72
2022/08/07 03:28:40;;;;;;;277.03;151.03;;;;;;;;;;5038286;28;20230;-72
2022/08/07 03:31:18;;;;;;;319.03;170.07;;;;;;;;;;5040285;28;20202;-72
2022/08/07 03:33:46;;;;;;;314.33;166.10;;;;;;;;;;5022159;28;20191;-71
2022/08/07 03:36:15;;;;;;;314.07;171.57;;;;;;;;;;5039543;28;20227;-72
2022/08/07 03:38:41;;;;;;;271.60;148.57;;;;;;;;;;5023933;28;20219;-73
2022/08/07 03:41:08;;;;;;;287.93;157.97;;;;;;;;;;5023912;28;20223;-73
2022/08/07 03:43:34;;;;;;;336.87;182.57;;;;;;;;;;5046166;28;20237;-73
2022/08/07 03:46:02;;;;;;;323.67;176.23;;;;;;;;;;5044589;28;20190;-73
2022/08/07 03:48:28;;;;;;;267.50;145.60;;;;;;;;;;5043095;28;20215;-72
2022/08/07 03:50:56;;;;;;;305.40;164.53;;;;;;;;;;5046738;28;20329;-72
2022/08/07 03:53:22;;;;;;;264.90;142.30;;;;;;;;;;5047997;28;20659;-71
2022/08/07 03:55:49;;;;;;;347.57;182.30;;;;;;;;;;5042148;28;20230;-73
2022/08/07 03:58:16;;;;;;;266.40;148.87;;;;;;;;;;5045298;28;20536;-73
2022/08/07 04:00:44;;;;;;;262.77;145.03;;;;;;;;;;5046157;28;20470;-73
2022/08/07 04:03:10;;;;;;;299.13;156.73;;;;;;;;;;5044888;28;20250;-73
2022/08/07 04:05:36;;;;;;;341.83;175.17;;;;;;;;;;5047874;28;20226;-73
2022/08/07 04:08:03;;;;;;;349.87;178.70;;;;;;;;;;5047025;28;20215;-73
2022/08/07 04:10:29;;;;;;;336.47;171.80;;;;;;;;;;5044752;28;20220;-72
2022/08/07 04:12:56;;;;;;;382.30;196.83;;;;;;;;;;5027926;28;20188;-72
2022/08/07 04:15:21;;;;;;;341.10;173.70;;;;;;;;;;5046674;28;20215;-73
2022/08/07 04:17:48;;;;;;;314.10;161.47;;;;;;;;;;5046060;28;20219;-73
2022/08/07 04:20:14;;;;;;;350.53;180.30;;;;;;;;;;5044439;28;20318;-72
2022/08/07 04:22:40;;;;;;;332.73;171.13;;;;;;;;;;5031040;28;20308;-72
2022/08/07 04:25:06;;;;;;;338.00;169.63;;;;;;;;;;5042796;28;20184;-72
2022/08/07 04:27:33;;;;;;;330.63;166.07;;;;;;;;;;5028861;28;20192;-73
2022/08/07 04:29:59;;;;;;;343.77;179.57;;;;;;;;;;5028950;28;20242;-73
2022/08/07 04:32:25;;;;;;;336.30;172.73;;;;;;;;;;5046434;28;20557;-72
2022/08/07 04:34:52;;;;;;;347.83;180.60;;;;;;;;;;5027848;28;20318;-73
2022/08/07 04:37:18;;;;;;;341.63;175.17;;;;;;;;;;5045241;28;20631;-73
2022/08/07 04:39:45;;;;;;;407.63;206.60;;;;;;;;;;5040001;28;20207;-72
2022/08/07 04:42:11;;;;;;;324.00;165.20;;;;;;;;;;5039481;28;21788;-73
2022/08/07 04:44:37;;;;;;;359.03;185.60;;;;;;;;;;5024243;28;20280;-72
2022/08/07 04:47:22;;;;;;;339.57;172.80;;;;;;;;;;5036082;28;20242;-72
2022/08/07 04:50:00;;;;;;;408.40;209.73;;;;;;;;;;5037582;28;20341;-73
2022/08/07 04:52:35;;;;;;;338.83;176.13;;;;;;;;;;5038364;28;20206;-73
2022/08/07 04:55:05;;;;;;;346.53;183.83;;;;;;;;;;5037619;28;20195;-72
2022/08/07 04:57:35;;;;;;;328.13;170.00;;;;;;;;;;5039236;28;20176;-73
2022/08/07 05:00:08;;;;;;;366.73;191.00;;;;;;;;;;5038692;28;20277;-72
2022/08/07 05:02:48;;;;;;;326.80;167.53;;;;;;;;;;5042998;28;20238;-72
2022/08/07 05:05:21;;;;;;;379.87;196.73;;;;;;;;;;5039688;28;20227;-72
2022/08/07 05:07:50;;;;;;;354.77;186.83;;;;;;;;;;5040004;28;20644;-72
2022/08/07 05:10:19;;;;;;;359.80;193.33;;;;;;;;;;5042146;28;20250;-73
2022/08/07 05:12:52;;;;;;;344.80;183.10;;;;;;;;;;5042059;28;20529;-73
2022/08/07 05:15:30;;;;;;;339.80;177.53;;;;;;;;;;5039251;28;20224;-73
2022/08/07 05:18:08;;;;;;;331.93;175.43;;;;;;;;;;5038000;28;20227;-72
2022/08/07 05:20:38;;;;;;;370.77;195.17;;;;;;;;;;5040524;28;20310;-73
2022/08/07 05:23:09;;;;;;;357.60;186.67;;;;;;;;;;5039189;28;20246;-72
2022/08/07 05:25:35;;;;;;;372.30;195.13;;;;;;;;;;5035565;28;20647;-73
2022/08/07 05:28:02;;;;;;;395.00;213.93;;;;;;;;;;5039029;28;20184;-72
2022/08/07 05:30:28;;;;;;;337.65;185.93;;;;;;;;;;5036563;28;20300;-74
2022/08/07 05:32:54;;;;;;;369.97;201.57;;;;;;;;;;5040667;28;20223;-73
2022/08/07 05:35:21;;;;;;;360.07;190.80;;;;;;;;;;5039029;28;20227;-72
2022/08/07 05:37:47;;;;;;;371.38;197.02;;;;;;;;;;5037432;28;20591;-72
2022/08/07 05:40:13;;;;;;;365.98;193.20;;;;;;;;;;5044999;28;20222;-73
2022/08/07 05:42:39;;;;;;;322.60;169.73;;;;;;;;;;5046399;28;20187;-73
2022/08/07 05:45:06;;;;;;;363.33;186.60;;;;;;;;;;5042620;28;20223;-72
2022/08/07 05:47:33;;;;;;;411.98;218.05;;;;;;;;;;5037691;28;20230;-72
2022/08/07 05:49:59;;;;;;;379.42;205.30;;;;;;;;;;5038400;28;20333;-73
2022/08/07 05:52:25;;;;;;;351.50;191.55;;;;;;;;;;5041915;28;20235;-73
2022/08/07 05:54:51;;;;;;;409.13;214.10;;;;;;;;;;5041820;28;20187;-73
2022/08/07 05:57:17;;;;;;;405.33;211.82;;;;;;;;;;5037554;28;20239;-72
2022/08/07 05:59:45;;;;;;;387.83;208.05;;;;;;;;;;5042824;28;20234;-72
2022/08/07 06:02:13;;;;;;;349.60;188.98;;;;;;;;;;5047767;28;20219;-73
2022/08/07 06:04:45;;;;;;;374.95;208.23;;;;;;;;;;5043266;28;20685;-72
2022/08/07 06:07:11;;;;;;;344.90;185.18;;;;;;;;;;5045900;28;20179;-74
2022/08/07 06:09:37;;;;;;;373.08;199.05;;;;;;;;;;5040334;28;20218;-73
2022/08/07 06:12:03;;;;;;;417.95;216.18;;;;;;;;;;5020454;28;20982;-73
2022/08/07 06:14:29;;;;;;;354.27;185.75;;;;;;;;;;5046206;28;20219;-73
2022/08/07 06:16:56;;;;;;;386.77;204.88;;;;;;;;;;5043684;28;20223;-72
2022/08/07 06:19:22;;;;;;;376.98;204.15;;;;;;;;;;5040978;28;20556;-73
2022/08/07 06:21:48;;;;;;;356.77;199.85;;;;;;;;;;5044562;28;20187;-72
2022/08/07 06:24:14;;;;;;;402.80;216.95;;;;;;;;;;5042688;28;20575;-73
2022/08/07 06:26:41;;;;;;;342.45;182.93;;;;;;;;;;5043813;28;20231;-72
2022/08/07 06:29:07;;;;;;;348.58;184.90;;;;;;;;;;5047022;28;20237;-75
2022/08/07 06:31:33;;;;;;;348.67;183.00;;;;;;;;;;5048563;28;20223;-76
2022/08/07 06:33:59;;;;;;;372.92;201.55;;;;;;;;;;5047356;28;20195;-75
2022/08/07 06:36:25;;;;;;;350.50;187.43;;;;;;;;;;5045208;28;20246;-76
2022/08/07 06:38:52;;;;;;;429.13;226.57;;;;;;;;;;5024943;28;20529;-76
2022/08/07 06:41:23;;;;;;;392.00;207.55;;;;;;;;;;5041875;28;20235;-76
2022/08/07 06:43:50;;;;;;;394.10;209.55;;;;;;;;;;5038999;28;20223;-71
2022/08/07 06:46:16;;;;;;;382.45;204.15;;;;;;;;;;5036487;28;20191;-68
2022/08/07 06:48:42;;;;;;;382.52;204.02;;;;;;;;;;5040414;28;20191;-69
2022/08/07 06:51:09;;;;;;;376.00;199.50;;;;;;;;;;5043071;28;20239;-69
2022/08/07 06:53:36;;;;;;;350.92;190.70;;;;;;;;;;5047803;28;20215;-69
2022/08/07 06:56:04;;;;;;;430.85;232.10;;;;;;;;;;5045787;28;20754;-69
2022/08/07 06:58:31;;;;;;;378.15;203.00;;;;;;;;;;5045422;28;20219;-70
2022/08/07 07:00:57;;;;;;;412.55;227.23;;;;;;;;;;5044857;28;20454;-69
2022/08/07 07:03:23;;;;;;;385.65;213.27;;;;;;;;;;5027505;28;20238;-69
2022/08/07 07:05:50;;;;;;;436.98;238.45;;;;;;;;;;5041609;28;20224;-69
2022/08/07 07:08:16;;;;;;;374.58;208.15;;;;;;;;;;5051530;28;20214;-70
2022/08/07 07:10:42;;;;;;;358.38;198.85;;;;;;;;;;5050738;28;20231;-69
2022/08/07 07:13:15;;;;;;;369.33;203.02;;;;;;;;;;5046938;28;20596;-69
2022/08/07 07:15:47;;;;;;;398.67;213.20;;;;;;;;;;5045117;28;20620;-70
2022/08/07 07:18:24;;;;;;;366.13;200.57;;;;;;;;;;5045366;28;20335;-69
2022/08/07 07:20:53;;;;;;;408.40;230.15;;;;;;;;;;5041740;28;20223;-68
2022/08/07 07:23:19;;;;;;;404.27;220.48;;;;;;;;;;5036426;28;20726;-75
2022/08/07 07:25:49;;;;;;;385.50;223.32;;;18.90;99.90;;;;;;5044580;28;20287;-77
2022/08/07 07:28:21;;;;;;;364.48;215.75;;;19.00;99.90;;;;;;5045171;28;20612;-74
2022/08/07 07:30:55;;;;;;;360.92;196.65;;;18.90;1.00;;;;;;5046938;28;20203;-71
2022/08/07 07:33:21;;;;;;;415.08;226.68;;;;;;;;;;5041521;28;20649;-72
2022/08/07 07:35:49;;;;;;;413.45;227.65;;;19.30;99.90;;;;;;5045359;28;22837;-71
2022/08/07 07:38:18;;;;;;;344.75;186.95;;;19.40;99.90;;;;;;5048016;28;20223;-71
2022/08/07 07:40:44;;;;;;;349.85;192.02;;;19.40;84.40;;;;;;5046421;28;20230;-71
2022/08/07 07:43:11;;;;;;;350.70;196.20;;;19.30;55.20;;;;;;5048200;28;20613;-72
2022/08/07 07:45:39;;;;;;;445.48;248.52;;;19.40;20.20;;;;;;5042824;28;20462;-73
2022/08/07 07:48:06;;;;;;;351.90;196.23;;;19.50;14.20;;;;;;5043890;28;20219;-75
2022/08/07 07:50:32;;;;;;;401.63;231.80;;;19.60;99.90;;;;;;5045166;28;20215;-72
2022/08/07 07:52:58;;;;;;;407.58;240.73;;;19.60;1.00;;;;;;5046488;28;20234;-72
2022/08/07 07:55:26;;;;;;;391.95;227.48;;;19.70;1.00;;;;;;5048933;28;20219;-72
2022/08/07 07:57:53;;;;;;;394.08;223.32;;;19.80;1.00;;;;;;5029918;28;20194;-72
2022/08/07 08:00:19;;;;;;;388.80;224.30;;;;;;;;;;5043362;28;20346;-70
2022/08/07 08:02:48;;;;;;;361.40;223.18;;;22.70;1.00;;;;;;5030471;28;20326;-73
2022/08/07 08:05:16;;;;;;;385.85;225.95;;;20.00;1.00;;;;;;5040519;28;20222;-72
2022/08/07 08:07:42;;;;;;;474.50;267.17;;;20.00;1.00;;;;;;5038404;28;20354;-63
2022/08/07 08:10:09;;;;;;;371.42;224.85;;;20.20;1.00;;;;;;5024551;28;20212;-63
2022/08/07 08:12:35;;;;;;;405.50;233.82;;;20.20;99.90;;;;;;5044315;28;20179;-63
2022/08/07 08:15:01;;;;;;;469.75;274.48;;;20.40;99.90;;;;;;5037168;28;20254;-63
2022/08/07 08:17:28;;;;;;;427.92;254.43;;;20.60;1.00;;;;;;5031865;28;20223;-63
2022/08/07 08:20:05;;;;;;;404.05;229.50;;;20.70;1.00;;;;;;5041162;28;20573;-63
2022/08/07 08:28:08;;;;;;;370.02;222.98;;;21.10;1.00;;;;;;5044796;28;20521;-64
2022/08/07 08:30:34;;;;;;;378.95;223.73;;;;;;;;;;5036645;28;20219;-68
2022/08/07 08:33:03;;;;;;;405.92;229.35;;;;;;;;;;5044532;28;20219;-67
2022/08/07 08:35:30;;;;;;;429.73;246.75;;;;;;;;;;5038854;28;20211;-67
2022/08/07 08:37:57;;;;;;;438.55;261.58;;;;;;;;;;5041264;28;20796;-68
2022/08/07 08:40:29;;;;;;;399.20;232.65;;;;;;;;;;5020004;28;20230;-67
2022/08/07 08:43:04;;;;;;;435.30;258.95;;;;;;;;;;5033479;28;20192;-67
2022/08/07 08:45:37;;;;;;;436.45;260.60;;;;;;;;;;5038525;28;20218;-67
2022/08/07 08:48:24;;;;;;;442.88;257.65;;;;;;;;;;5014877;28;20663;-66
2022/08/07 08:50:54;;;;;;;391.45;241.48;;;;;;;;;;5041814;28;20224;-67
2022/08/07 08:53:29;;;;;;;466.55;273.52;;;;;;;;;;5040974;28;20306;-67
2022/08/07 08:55:57;;;;;;;451.17;273.63;;;;;;;;;;5036030;28;20227;-67
2022/08/07 08:58:31;;;;;;;396.38;240.70;;;;;;;;;;5038994;28;20219;-67
2022/08/07 09:01:09;;;;;;;403.08;252.65;;;;;;;;;;5047047;28;20215;-67
2022/08/07 09:03:44;;;;;;;372.00;232.07;;;;;;;;;;5048458;28;20237;-67
2022/08/07 09:06:20;;;;;;;406.65;248.50;;;;;;;;;;5042842;28;20821;-67
2022/08/07 09:08:57;;;;;;;386.67;245.40;;;;;;;;;;5035733;28;20477;-67
2022/08/07 09:11:38;;;;;;;411.38;239.38;;;;;;;;;;5039042;28;20242;-67
2022/08/07 09:14:25;;;;;;;452.30;279.13;;;;;;;;;;5037593;28;20315;-67
2022/08/07 09:17:01;;;;;;;441.08;264.13;;;;;;;;;;5035244;28;20215;-68
2022/08/07 09:19:55;;;;;;;462.55;276.13;;;;;;;;;;5030372;28;21420;-65
2022/08/07 09:22:29;;;;;;;422.40;253.50;;;;;;;;;;5028645;28;20285;-66
2022/08/07 09:25:12;;;;;;;456.35;265.52;;;;;;;;;;5033149;28;20292;-66
2022/08/07 09:27:56;;;;;;;383.98;233.98;;;;;;;;;;5039893;28;20219;-66
2022/08/07 09:30:24;;;;;;;415.08;245.90;;;;;;;;;;5039681;28;20227;-66
2022/08/07 09:33:08;;;;;;;403.63;243.32;;;;;;;;;;5045662;28;20223;-66
2022/08/07 09:35:37;;;;;;;427.42;256.83;;;;;;;;;;5040938;28;20227;-66
2022/08/07 09:38:07;;;;;;;377.38;222.68;;;;;;;;;;5046253;28;20219;-66
2022/08/07 09:40:50;;;;;;;399.58;234.10;;;;;;;;;;5050116;28;20223;-66
2022/08/07 09:43:16;;;;;;;410.23;249.35;;;;;;;;;;5046698;28;20241;-66
2022/08/07 09:45:47;;;;;;;398.63;239.40;;;;;;;;;;5040869;28;20180;-66
2022/08/07 09:48:31;;;;;;;362.80;220.20;;;;;;;;;;5033979;28;20592;-67
2022/08/07 09:51:10;;;;;;;399.80;251.45;;;;;;;;;;5037211;28;20285;-66
2022/08/07 09:53:37;;;;;;;371.92;233.82;;;;;;;;;;5041793;28;20222;-66
2022/08/07 09:56:27;;;;;;;395.33;246.27;;;;;;;;;;5052239;28;20218;-66
2022/08/07 09:58:54;;;;;;;402.10;248.48;;;;;;;;;;5042318;28;20223;-67
2022/08/07 10:01:29;;;;;;;434.52;260.20;;;;;;;;;;5020479;28;20294;-66
2022/08/07 10:04:01;;;;;;;399.35;242.90;;;;;;;;;;5046673;28;20191;-67
2022/08/07 10:06:46;;;;;;;390.58;236.27;;;;;;;;;;5047602;28;20219;-67
2022/08/07 10:09:30;;;;;;;382.25;232.85;;;;;;;;;;5043679;28;20220;-67
2022/08/07 10:12:16;;;;;;;435.10;261.02;;;;;;;;;;5044492;28;20639;-67
2022/08/07 10:15:00;;;;;;;406.73;249.75;;;;;;;;;;5024256;28;20234;-68
2022/08/07 10:17:45;;;;;;;423.85;257.70;;;;;;;;;;5037228;28;20242;-67
2022/08/07 10:20:24;;;;;;;404.98;258.08;;;;;;;;;;5039039;28;20234;-67
2022/08/07 10:22:49;;;;;;;436.42;272.67;;;;;;;;;;5041639;28;20219;-66
2022/08/07 10:25:29;;;;;;;387.83;265.92;;;;;;;;;;5039647;28;20187;-67
2022/08/07 10:28:01;;;;;;;466.50;303.17;;;;;;;;;;5039192;28;20204;-67
2022/08/07 10:30:35;;;;;;;407.73;272.83;;;;;;;;;;5041815;28;20548;-69
2022/08/07 10:33:10;;;;;;;488.17;314.42;;;;;;;;;;5037634;28;20215;-69
2022/08/07 10:35:54;;;;;;;446.88;288.02;;;;;;;;;;5042213;28;20494;-74
2022/08/07 10:38:20;;;;;;;385.50;249.93;;;;;;;;;;5046952;28;20223;-72
2022/08/07 10:41:05;;;;;;;415.20;268.45;;;;;;;;;;5044150;28;20243;-70
2022/08/07 10:43:33;;;;;;;411.13;261.20;;;;;;;;;;5043696;28;20699;-65
2022/08/07 10:46:00;;;;;;;408.92;268.90;;;;;;;;;;5041290;28;20832;-65
2022/08/07 10:48:47;;;;;;;383.38;249.15;;;;;;;;;;5046172;28;20617;-67
2022/08/07 10:51:32;;;;;;;430.38;277.73;;;;;;;;;;5042810;28;20242;-65
2022/08/07 10:54:07;;;;;;;445.90;299.85;;;;;;;;;;5040315;28;20220;-66
2022/08/07 10:56:45;;;;;;;416.55;283.80;;;;;;;;;;5044019;28;20227;-66
2022/08/07 10:59:11;;;;;;;427.70;287.52;;;;;;;;;;5038968;28;20215;-67
2022/08/07 11:01:40;;;;;;;400.77;274.70;;;;;;;;;;5041932;28;20222;-63
2022/08/07 11:04:07;;;;;;;388.75;273.67;;;;;;;;;;5042272;28;20230;-65
2022/08/07 11:06:45;;;;;;;441.95;291.08;;;;;;;;;;5043442;28;20266;-64
2022/08/07 11:09:13;;;;;;;404.23;263.80;;;;;;;;;;5046792;28;20230;-64
2022/08/07 11:11:44;;;;;;;422.98;280.80;;;;;;;;;;5043931;28;20211;-63
2022/08/07 11:14:13;;;;;;;395.80;264.17;;;;;;;;;;5039787;28;20227;-64
2022/08/07 11:16:46;;;;;;;429.33;284.55;;;;;;;;;;5040411;28;20219;-66
2022/08/07 11:19:24;;;;;;;396.95;278.10;;;;;;;;;;5040699;28;20267;-68
2022/08/07 11:22:03;;;;;;;428.33;298.35;;;;;;;;;;5038895;28;20180;-78
2022/08/07 11:24:37;;;;;;;383.45;261.05;;;;;;;;;;5025376;28;20734;-70
2022/08/07 11:27:22;;;;;;;433.80;296.25;;;;;;;;;;5039115;28;20434;-73
2022/08/07 11:29:51;;;;;;;442.25;311.83;;;;;;;;;;5029128;28;20787;-73
2022/08/07 11:32:22;;;;;;;385.50;282.30;;;;;;;;;;5045536;28;20212;-70
2022/08/07 11:34:53;;;;;;;408.33;278.02;;;;;;;;;;5044183;28;20215;-70
2022/08/07 11:37:18;;;;;;;435.15;306.55;;;;;;;;;;5040946;28;20519;-69
2022/08/07 11:39:59;;;;;;;405.02;295.45;;;;;;;;;;5034647;28;20215;-70
2022/08/07 11:42:25;;;;;;;448.55;322.20;;;;;;;;;;5041641;28;20214;-70
2022/08/07 11:44:54;;;;;;;422.33;304.80;;;;;;;;;;5026942;28;20216;-70
2022/08/07 11:47:20;;;;;;;420.55;294.40;;;;;;;;;;5043817;28;20211;-70
2022/08/07 11:50:00;;;;;;;411.27;308.38;;;;;;;;;;5047185;28;20975;-70
2022/08/07 11:52:26;;;;;;;402.05;297.10;;;;;;;;;;5044355;28;20218;-70
2022/08/07 11:54:52;;;;;;;419.77;309.80;;;;;;;;;;5024259;28;20237;-70
2022/08/07 11:57:22;;;;;;;402.08;301.77;;;;;;;;;;5043511;28;20548;-70
2022/08/07 11:59:56;;;;;;;409.73;294.50;;;;;;;;;;5044071;28;20277;-70
2022/08/07 12:02:36;;;;;;;395.67;286.75;;;;;;;;;;5045935;28;20219;-71
2022/08/07 12:05:20;;;;;;;442.25;318.77;;;;;;;;;;5046315;28;20226;-71
2022/08/07 12:08:01;;;;;;;420.77;311.00;;;;;;;;;;5043954;28;20223;-69
2022/08/07 12:10:30;;;;;;;448.70;318.95;;;;;;;;;;5042400;28;20225;-70
2022/08/07 12:13:02;;;;;;;435.92;326.75;;;;;;;;;;5043788;28;20172;-70
2022/08/07 12:15:33;;;;;;;419.50;305.52;;;;;;;;;;5046066;28;20253;-71
2022/08/07 12:18:04;;;;;;;434.27;324.48;;;;;;;;;;5040974;28;20227;-71
2022/08/07 12:20:35;;;;;;;413.35;302.83;;;;;;;;;;5041043;28;20223;-70
2022/08/07 12:23:20;;;;;;;432.77;331.15;;;;;;;;;;5035023;28;20269;-69
2022/08/07 12:25:59;;;;;;;436.23;335.40;;;;;;;;;;5042092;28;20281;-69
2022/08/07 12:28:31;;;;;;;403.75;313.17;;;;;;;;;;5044904;28;20304;-69
2022/08/07 12:31:03;;;;;;;428.63;311.20;;;;;;;;;;5044428;28;20203;-71
2022/08/07 12:33:30;;;;;;;461.88;337.65;;;;;;;;;;5017129;28;20692;-71
2022/08/07 12:35:57;;;;;;;402.65;306.05;;;;;;;;;;5037137;28;20553;-76
2022/08/07 12:38:24;;;;;;;497.58;355.38;;;;;;;;;;5042633;28;20223;-77
2022/08/07 12:40:51;;;;;;;404.92;317.83;;;;;;;;;;5048137;28;20281;-76
2022/08/07 12:43:21;;;;;;;387.70;314.10;;;;;;;;;;5046670;28;20278;-76
2022/08/07 12:46:12;;;;;;;417.00;319.42;;;;;;;;;;5026825;28;20181;-75
2022/08/07 12:48:41;;;;;;;386.27;305.42;;;;;;;;;;5045631;28;20640;-75
2022/08/07 12:51:13;;;;;;;374.98;294.17;;;;;;;;;;5045106;28;20323;-75
2022/08/07 12:53:43;;;;;;;388.02;307.95;;;;;;;;;;5046590;28;20215;-75
2022/08/07 12:56:16;;;;;;;375.08;300.75;;;;;;;;;;5044534;28;20226;-75
2022/08/07 12:58:44;;;;;;;380.50;306.02;;;;;;;;;;5049581;28;20298;-76
2022/08/07 13:01:19;;;;;;;412.80;317.90;;;;;;;;;;5049034;28;20512;-76
2022/08/07 13:03:51;;;;;;;385.20;315.02;;;;;;;;;;5042007;28;20309;-76
2022/08/07 13:06:26;;;;;;;388.73;302.58;;;;;;;;;;5048728;28;20212;-75
2022/08/07 13:09:15;;;;;;;406.95;311.15;;;;;;;;;;5045070;28;20215;-75
2022/08/07 13:11:48;;;;;;;386.15;305.65;;;;;;;;;;5049987;28;20218;-75
2022/08/07 13:14:32;;;;;;;382.48;315.05;;;;;;;;;;5044992;28;20220;-75
2022/08/07 13:17:10;;;;;;;423.05;323.02;;;;;;;;;;5044231;28;20524;-76
2022/08/07 13:19:46;;;;;;;372.02;302.05;;;;;;;;;;5049120;28;20222;-76
2022/08/07 13:22:15;;;;;;;358.85;292.00;;;;;;;;;;5051967;28;20251;-76
2022/08/07 13:24:53;;;;;;;387.40;304.77;;;;;;;;;;5046583;28;20593;-75
2022/08/07 13:27:27;;;;;;;398.00;316.02;;;;;;;;;;5050669;28;20250;-75
2022/08/07 13:30:04;;;;;;;412.15;328.00;;;;;;;;;;5046729;28;20560;-75
2022/08/07 13:32:35;;;;;;;402.15;320.90;;;;;;;;;;5047608;28;20700;-75
2022/08/07 13:35:07;;;;;;;415.05;335.30;;;;;;;;;;5030205;28;20230;-75
2022/08/07 13:37:41;;;;;;;387.05;314.42;;;;;;;;;;5049659;28;20215;-75
2022/08/07 13:40:07;;;;;;;387.90;318.70;;;;;;;;;;5033377;28;20540;-76
2022/08/07 13:42:35;;;;;;;385.15;325.40;;;;;;;;;;5052097;28;20186;-76
2022/08/07 13:45:03;;;;;;;429.30;343.88;;;;;;;;;;5047797;28;20658;-77
2022/08/07 13:47:30;;;;;;;425.55;358.40;;;;;;;;;;5038821;28;20224;-75
2022/08/07 13:49:58;;;;;;;438.67;354.75;;;;;;;;;;5037662;28;20568;-72
2022/08/07 13:52:26;;;;;;;417.52;348.88;;;;;;;;;;5040943;28;20219;-72
2022/08/07 13:54:54;;;;;;;415.95;342.10;;;;;;;;;;5050254;28;20615;-71
2022/08/07 13:57:24;;;;;;;422.60;359.17;;;;;;;;;;5045486;28;20219;-71
2022/08/07 13:59:53;;;;;;;441.17;368.10;;;;;;;;;;5045315;28;20254;-71
2022/08/07 14:02:21;;;;;;;412.35;356.60;;;;;;;;;;5050738;28;20269;-71
2022/08/07 14:04:49;;;;;;;404.23;359.38;;;;;;;;;;5033014;28;20295;-71